sensor_id;sensor_type;location;lat;lon;timestamp;P1;durP1;ratioP1;P2;durP2;ratioP2
65368;SDS011;51970;53.484;49.488;2024-03-02T00:00:18;22.25;;;8.20;;
65368;SDS011;51970;53.484;49.488;2024-03-02T00:02:47;22.80;;;10.68;;
65368;SDS011;51970;53.484;49.488;2024-03-02T00:05:15;25.30;;;8.45;;
65368;SDS011;51970;53.484;49.488;2024-03-02T00:07:43;21.95;;;9.70;;
65368;SDS011;51970;53.484;49.488;2024-03-02T00:10:11;18.35;;;7.63;;
65368;SDS011;51970;53.484;49.488;2024-03-02T00:12:40;19.48;;;9.38;;
65368;SDS011;51970;53.484;49.488;2024-03-02T00:15:19;19.00;;;7.63;;
65368;SDS011;51970;53.484;49.488;2024-03-02T00:18:12;16.75;;;8.20;;
65368;SDS011;51970;53.484;49.488;2024-03-02T00:20:39;22.02;;;8.63;;
65368;SDS011;51970;53.484;49.488;2024-03-02T00:23:08;19.73;;;8.43;;
65368;SDS011;51970;53.484;49.488;2024-03-02T00:28:25;21.38;;;8.30;;
65368;SDS011;51970;53.484;49.488;2024-03-02T00:33:23;17.02;;;8.35;;
65368;SDS011;51970;53.484;49.488;2024-03-02T00:35:53;19.65;;;8.52;;
65368;SDS011;51970;53.484;49.488;2024-03-02T00:38:20;22.13;;;8.63;;
65368;SDS011;51970;53.484;49.488;2024-03-02T00:40:46;17.63;;;8.77;;
65368;SDS011;51970;53.484;49.488;2024-03-02T00:46:08;14.88;;;7.45;;
65368;SDS011;51970;53.484;49.488;2024-03-02T00:48:34;18.50;;;8.50;;
65368;SDS011;51970;53.484;49.488;2024-03-02T00:51:01;18.55;;;7.75;;
65368;SDS011;51970;53.484;49.488;2024-03-02T00:53:30;19.45;;;8.32;;
65368;SDS011;51970;53.484;49.488;2024-03-02T00:55:58;15.68;;;8.73;;
65368;SDS011;51970;53.484;49.488;2024-03-02T00:58:25;16.77;;;9.48;;
65368;SDS011;51970;53.484;49.488;2024-03-02T01:00:51;16.55;;;7.43;;
65368;SDS011;51970;53.484;49.488;2024-03-02T01:03:17;21.02;;;8.55;;
65368;SDS011;51970;53.484;49.488;2024-03-02T01:05:44;18.08;;;8.68;;
65368;SDS011;51970;53.484;49.488;2024-03-02T01:08:11;21.05;;;8.95;;
65368;SDS011;51970;53.484;49.488;2024-03-02T01:10:37;18.02;;;7.38;;
65368;SDS011;51970;53.484;49.488;2024-03-02T01:13:03;17.73;;;8.82;;
65368;SDS011;51970;53.484;49.488;2024-03-02T01:15:29;16.23;;;7.47;;
65368;SDS011;51970;53.484;49.488;2024-03-02T01:17:56;22.95;;;8.25;;
65368;SDS011;51970;53.484;49.488;2024-03-02T01:20:22;17.70;;;8.77;;
65368;SDS011;51970;53.484;49.488;2024-03-02T01:22:50;17.25;;;7.35;;
65368;SDS011;51970;53.484;49.488;2024-03-02T01:25:16;14.50;;;7.10;;
65368;SDS011;51970;53.484;49.488;2024-03-02T01:27:43;18.42;;;8.63;;
65368;SDS011;51970;53.484;49.488;2024-03-02T01:30:09;18.02;;;8.48;;
65368;SDS011;51970;53.484;49.488;2024-03-02T01:32:39;25.17;;;10.43;;
65368;SDS011;51970;53.484;49.488;2024-03-02T01:35:06;21.92;;;9.70;;
65368;SDS011;51970;53.484;49.488;2024-03-02T01:37:33;16.48;;;8.20;;
65368;SDS011;51970;53.484;49.488;2024-03-02T01:39:59;16.20;;;8.85;;
65368;SDS011;51970;53.484;49.488;2024-03-02T01:42:25;21.02;;;10.05;;
65368;SDS011;51970;53.484;49.488;2024-03-02T01:44:51;14.43;;;7.60;;
65368;SDS011;51970;53.484;49.488;2024-03-02T01:47:18;17.80;;;8.38;;
65368;SDS011;51970;53.484;49.488;2024-03-02T01:49:44;18.73;;;9.38;;
65368;SDS011;51970;53.484;49.488;2024-03-02T01:52:10;20.63;;;7.95;;
65368;SDS011;51970;53.484;49.488;2024-03-02T01:54:36;17.25;;;8.45;;
65368;SDS011;51970;53.484;49.488;2024-03-02T01:57:02;15.38;;;8.45;;
65368;SDS011;51970;53.484;49.488;2024-03-02T01:59:29;18.33;;;9.18;;
65368;SDS011;51970;53.484;49.488;2024-03-02T02:01:55;20.63;;;9.70;;
65368;SDS011;51970;53.484;49.488;2024-03-02T02:04:21;19.30;;;8.23;;
65368;SDS011;51970;53.484;49.488;2024-03-02T02:06:52;23.10;;;9.88;;
65368;SDS011;51970;53.484;49.488;2024-03-02T02:09:19;21.63;;;7.10;;
65368;SDS011;51970;53.484;49.488;2024-03-02T02:11:45;18.05;;;8.82;;
65368;SDS011;51970;53.484;49.488;2024-03-02T02:14:11;24.65;;;8.25;;
65368;SDS011;51970;53.484;49.488;2024-03-02T02:16:38;20.58;;;8.25;;
65368;SDS011;51970;53.484;49.488;2024-03-02T02:19:04;19.05;;;8.90;;
65368;SDS011;51970;53.484;49.488;2024-03-02T02:21:31;18.05;;;8.07;;
65368;SDS011;51970;53.484;49.488;2024-03-02T02:23:57;17.98;;;8.25;;
65368;SDS011;51970;53.484;49.488;2024-03-02T02:26:23;21.63;;;9.55;;
65368;SDS011;51970;53.484;49.488;2024-03-02T02:28:50;16.23;;;7.57;;
65368;SDS011;51970;53.484;49.488;2024-03-02T02:31:16;17.40;;;7.93;;
65368;SDS011;51970;53.484;49.488;2024-03-02T02:33:42;18.23;;;7.80;;
65368;SDS011;51970;53.484;49.488;2024-03-02T02:36:08;15.95;;;6.78;;
65368;SDS011;51970;53.484;49.488;2024-03-02T02:38:39;19.02;;;8.02;;
65368;SDS011;51970;53.484;49.488;2024-03-02T02:41:08;18.13;;;7.63;;
65368;SDS011;51970;53.484;49.488;2024-03-02T02:43:34;16.70;;;7.82;;
65368;SDS011;51970;53.484;49.488;2024-03-02T02:46:00;14.88;;;6.45;;
65368;SDS011;51970;53.484;49.488;2024-03-02T02:48:26;16.90;;;7.60;;
65368;SDS011;51970;53.484;49.488;2024-03-02T02:50:53;18.48;;;7.60;;
65368;SDS011;51970;53.484;49.488;2024-03-02T02:53:19;15.60;;;7.80;;
65368;SDS011;51970;53.484;49.488;2024-03-02T02:55:45;14.27;;;6.63;;
65368;SDS011;51970;53.484;49.488;2024-03-02T02:58:11;19.55;;;8.38;;
65368;SDS011;51970;53.484;49.488;2024-03-02T03:00:37;23.05;;;9.40;;
65368;SDS011;51970;53.484;49.488;2024-03-02T03:03:04;20.65;;;9.43;;
65368;SDS011;51970;53.484;49.488;2024-03-02T03:05:30;18.63;;;9.57;;
65368;SDS011;51970;53.484;49.488;2024-03-02T03:07:56;18.35;;;8.65;;
65368;SDS011;51970;53.484;49.488;2024-03-02T03:10:22;22.98;;;7.68;;
65368;SDS011;51970;53.484;49.488;2024-03-02T03:12:51;17.13;;;7.60;;
65368;SDS011;51970;53.484;49.488;2024-03-02T03:15:17;23.45;;;8.57;;
65368;SDS011;51970;53.484;49.488;2024-03-02T03:17:43;18.80;;;7.43;;
65368;SDS011;51970;53.484;49.488;2024-03-02T03:20:11;21.45;;;8.73;;
65368;SDS011;51970;53.484;49.488;2024-03-02T03:22:41;15.52;;;8.70;;
65368;SDS011;51970;53.484;49.488;2024-03-02T03:25:07;17.58;;;8.70;;
65368;SDS011;51970;53.484;49.488;2024-03-02T03:27:40;21.48;;;7.38;;
65368;SDS011;51970;53.484;49.488;2024-03-02T03:30:07;15.95;;;7.35;;
65368;SDS011;51970;53.484;49.488;2024-03-02T03:32:33;20.15;;;7.85;;
65368;SDS011;51970;53.484;49.488;2024-03-02T03:34:59;23.33;;;7.78;;
65368;SDS011;51970;53.484;49.488;2024-03-02T03:37:26;12.93;;;7.65;;
65368;SDS011;51970;53.484;49.488;2024-03-02T03:40:01;14.70;;;6.63;;
65368;SDS011;51970;53.484;49.488;2024-03-02T03:42:28;18.00;;;8.35;;
65368;SDS011;51970;53.484;49.488;2024-03-02T03:44:54;18.67;;;8.73;;
65368;SDS011;51970;53.484;49.488;2024-03-02T03:47:21;15.88;;;7.97;;
65368;SDS011;51970;53.484;49.488;2024-03-02T03:49:47;18.33;;;8.75;;
65368;SDS011;51970;53.484;49.488;2024-03-02T03:52:13;17.08;;;9.43;;
65368;SDS011;51970;53.484;49.488;2024-03-02T03:54:39;17.20;;;8.40;;
65368;SDS011;51970;53.484;49.488;2024-03-02T03:57:08;20.13;;;9.00;;
65368;SDS011;51970;53.484;49.488;2024-03-02T03:59:34;14.77;;;7.35;;
65368;SDS011;51970;53.484;49.488;2024-03-02T04:02:00;17.52;;;8.70;;
65368;SDS011;51970;53.484;49.488;2024-03-02T04:04:26;17.98;;;9.02;;
65368;SDS011;51970;53.484;49.488;2024-03-02T04:06:52;19.40;;;7.95;;
65368;SDS011;51970;53.484;49.488;2024-03-02T04:09:19;17.52;;;8.75;;
65368;SDS011;51970;53.484;49.488;2024-03-02T04:11:45;17.30;;;7.90;;
65368;SDS011;51970;53.484;49.488;2024-03-02T04:14:12;21.00;;;8.57;;
65368;SDS011;51970;53.484;49.488;2024-03-02T04:16:38;19.02;;;9.32;;
65368;SDS011;51970;53.484;49.488;2024-03-02T04:19:05;16.20;;;7.60;;
65368;SDS011;51970;53.484;49.488;2024-03-02T04:21:31;21.42;;;9.13;;
65368;SDS011;51970;53.484;49.488;2024-03-02T04:23:57;16.25;;;9.25;;
65368;SDS011;51970;53.484;49.488;2024-03-02T04:26:24;18.30;;;9.25;;
65368;SDS011;51970;53.484;49.488;2024-03-02T04:28:51;19.27;;;9.15;;
65368;SDS011;51970;53.484;49.488;2024-03-02T04:31:18;25.70;;;10.30;;
65368;SDS011;51970;53.484;49.488;2024-03-02T04:33:44;19.50;;;7.82;;
65368;SDS011;51970;53.484;49.488;2024-03-02T04:36:10;17.52;;;8.77;;
65368;SDS011;51970;53.484;49.488;2024-03-02T04:38:37;22.88;;;10.13;;
65368;SDS011;51970;53.484;49.488;2024-03-02T04:41:04;24.77;;;10.23;;
65368;SDS011;51970;53.484;49.488;2024-03-02T04:43:34;22.15;;;10.40;;
65368;SDS011;51970;53.484;49.488;2024-03-02T04:46:00;24.05;;;9.52;;
65368;SDS011;51970;53.484;49.488;2024-03-02T04:48:27;19.52;;;9.68;;
65368;SDS011;51970;53.484;49.488;2024-03-02T04:50:53;21.88;;;10.23;;
65368;SDS011;51970;53.484;49.488;2024-03-02T04:53:19;19.02;;;9.20;;
65368;SDS011;51970;53.484;49.488;2024-03-02T04:55:46;19.02;;;9.52;;
65368;SDS011;51970;53.484;49.488;2024-03-02T04:58:17;24.35;;;9.30;;
65368;SDS011;51970;53.484;49.488;2024-03-02T05:00:43;25.73;;;9.88;;
65368;SDS011;51970;53.484;49.488;2024-03-02T05:03:12;17.55;;;8.80;;
65368;SDS011;51970;53.484;49.488;2024-03-02T05:05:38;21.63;;;9.63;;
65368;SDS011;51970;53.484;49.488;2024-03-02T05:08:05;22.75;;;10.43;;
65368;SDS011;51970;53.484;49.488;2024-03-02T05:10:31;21.80;;;11.68;;
65368;SDS011;51970;53.484;49.488;2024-03-02T05:12:57;22.42;;;10.30;;
65368;SDS011;51970;53.484;49.488;2024-03-02T05:15:25;24.58;;;11.65;;
65368;SDS011;51970;53.484;49.488;2024-03-02T05:17:51;21.70;;;11.50;;
65368;SDS011;51970;53.484;49.488;2024-03-02T05:20:18;26.02;;;10.57;;
65368;SDS011;51970;53.484;49.488;2024-03-02T05:22:44;21.77;;;11.10;;
65368;SDS011;51970;53.484;49.488;2024-03-02T05:25:10;22.67;;;9.98;;
65368;SDS011;51970;53.484;49.488;2024-03-02T05:27:36;24.48;;;11.18;;
65368;SDS011;51970;53.484;49.488;2024-03-02T05:30:02;24.10;;;11.98;;
65368;SDS011;51970;53.484;49.488;2024-03-02T05:32:32;26.65;;;12.02;;
65368;SDS011;51970;53.484;49.488;2024-03-02T05:34:58;25.10;;;10.88;;
65368;SDS011;51970;53.484;49.488;2024-03-02T05:37:24;24.00;;;11.57;;
65368;SDS011;51970;53.484;49.488;2024-03-02T05:39:50;24.40;;;11.73;;
65368;SDS011;51970;53.484;49.488;2024-03-02T05:42:16;20.23;;;9.63;;
65368;SDS011;51970;53.484;49.488;2024-03-02T05:44:43;21.77;;;10.18;;
65368;SDS011;51970;53.484;49.488;2024-03-02T05:47:09;20.95;;;9.50;;
65368;SDS011;51970;53.484;49.488;2024-03-02T05:49:35;22.92;;;10.73;;
65368;SDS011;51970;53.484;49.488;2024-03-02T05:52:02;22.73;;;11.27;;
65368;SDS011;51970;53.484;49.488;2024-03-02T05:54:28;23.83;;;11.00;;
65368;SDS011;51970;53.484;49.488;2024-03-02T05:56:54;23.98;;;10.88;;
65368;SDS011;51970;53.484;49.488;2024-03-02T05:59:20;19.67;;;9.70;;
65368;SDS011;51970;53.484;49.488;2024-03-02T06:01:47;21.33;;;10.57;;
65368;SDS011;51970;53.484;49.488;2024-03-02T06:04:15;18.38;;;9.63;;
65368;SDS011;51970;53.484;49.488;2024-03-02T06:06:42;22.38;;;10.07;;
65368;SDS011;51970;53.484;49.488;2024-03-02T06:09:08;22.10;;;10.25;;
65368;SDS011;51970;53.484;49.488;2024-03-02T06:11:39;16.75;;;9.15;;
65368;SDS011;51970;53.484;49.488;2024-03-02T06:14:07;18.27;;;9.30;;
65368;SDS011;51970;53.484;49.488;2024-03-02T06:16:34;20.48;;;9.63;;
65368;SDS011;51970;53.484;49.488;2024-03-02T06:19:00;16.58;;;8.90;;
65368;SDS011;51970;53.484;49.488;2024-03-02T06:21:27;17.35;;;8.20;;
65368;SDS011;51970;53.484;49.488;2024-03-02T06:23:54;16.45;;;9.05;;
65368;SDS011;51970;53.484;49.488;2024-03-02T06:26:20;19.95;;;9.95;;
65368;SDS011;51970;53.484;49.488;2024-03-02T06:28:46;16.10;;;8.13;;
65368;SDS011;51970;53.484;49.488;2024-03-02T06:31:12;20.40;;;9.57;;
65368;SDS011;51970;53.484;49.488;2024-03-02T06:33:38;20.75;;;9.70;;
65368;SDS011;51970;53.484;49.488;2024-03-02T06:36:05;20.73;;;11.15;;
65368;SDS011;51970;53.484;49.488;2024-03-02T06:38:35;21.50;;;9.25;;
65368;SDS011;51970;53.484;49.488;2024-03-02T06:41:01;20.30;;;11.20;;
65368;SDS011;51970;53.484;49.488;2024-03-02T06:43:27;17.90;;;8.88;;
65368;SDS011;51970;53.484;49.488;2024-03-02T06:45:53;21.95;;;9.25;;
65368;SDS011;51970;53.484;49.488;2024-03-02T06:48:19;22.45;;;10.65;;
65368;SDS011;51970;53.484;49.488;2024-03-02T06:50:46;26.42;;;10.07;;
65368;SDS011;51970;53.484;49.488;2024-03-02T06:53:15;18.02;;;10.02;;
65368;SDS011;51970;53.484;49.488;2024-03-02T06:55:45;20.75;;;9.73;;
65368;SDS011;51970;53.484;49.488;2024-03-02T06:58:12;22.88;;;10.93;;
65368;SDS011;51970;53.484;49.488;2024-03-02T07:00:40;22.45;;;9.93;;
65368;SDS011;51970;53.484;49.488;2024-03-02T07:03:07;20.27;;;10.50;;
65368;SDS011;51970;53.484;49.488;2024-03-02T07:05:33;21.17;;;10.65;;
65368;SDS011;51970;53.484;49.488;2024-03-02T07:08:00;20.98;;;10.82;;
65368;SDS011;51970;53.484;49.488;2024-03-02T07:10:27;17.20;;;9.43;;
65368;SDS011;51970;53.484;49.488;2024-03-02T07:12:53;19.92;;;9.15;;
65368;SDS011;51970;53.484;49.488;2024-03-02T07:15:19;24.58;;;9.93;;
65368;SDS011;51970;53.484;49.488;2024-03-02T07:17:54;20.00;;;9.38;;
65368;SDS011;51970;53.484;49.488;2024-03-02T07:20:20;15.88;;;8.65;;
65368;SDS011;51970;53.484;49.488;2024-03-02T07:22:46;17.73;;;9.80;;
65368;SDS011;51970;53.484;49.488;2024-03-02T07:25:13;17.90;;;9.75;;
65368;SDS011;51970;53.484;49.488;2024-03-02T07:27:39;23.42;;;9.73;;
65368;SDS011;51970;53.484;49.488;2024-03-02T07:30:06;25.50;;;10.63;;
65368;SDS011;51970;53.484;49.488;2024-03-02T07:32:32;20.55;;;9.75;;
65368;SDS011;51970;53.484;49.488;2024-03-02T07:34:58;19.83;;;9.60;;
65368;SDS011;51970;53.484;49.488;2024-03-02T07:37:26;19.45;;;9.30;;
65368;SDS011;51970;53.484;49.488;2024-03-02T07:39:53;22.48;;;9.93;;
65368;SDS011;51970;53.484;49.488;2024-03-02T07:42:19;19.10;;;10.55;;
65368;SDS011;51970;53.484;49.488;2024-03-02T07:44:45;20.83;;;9.50;;
65368;SDS011;51970;53.484;49.488;2024-03-02T07:47:11;20.05;;;9.85;;
65368;SDS011;51970;53.484;49.488;2024-03-02T07:49:38;23.42;;;7.60;;
65368;SDS011;51970;53.484;49.488;2024-03-02T07:52:05;20.70;;;9.13;;
65368;SDS011;51970;53.484;49.488;2024-03-02T07:54:31;20.92;;;10.70;;
65368;SDS011;51970;53.484;49.488;2024-03-02T07:56:57;22.02;;;9.88;;
65368;SDS011;51970;53.484;49.488;2024-03-02T07:59:23;20.50;;;10.10;;
65368;SDS011;51970;53.484;49.488;2024-03-02T08:01:49;25.73;;;8.80;;
65368;SDS011;51970;53.484;49.488;2024-03-02T08:04:16;24.42;;;9.38;;
65368;SDS011;51970;53.484;49.488;2024-03-02T08:06:43;20.95;;;9.70;;
65368;SDS011;51970;53.484;49.488;2024-03-02T08:09:10;23.77;;;10.82;;
65368;SDS011;51970;53.484;49.488;2024-03-02T08:11:36;26.40;;;11.50;;
65368;SDS011;51970;53.484;49.488;2024-03-02T08:14:03;20.83;;;10.68;;
65368;SDS011;51970;53.484;49.488;2024-03-02T08:16:29;20.05;;;10.35;;
65368;SDS011;51970;53.484;49.488;2024-03-02T08:18:55;22.90;;;10.30;;
65368;SDS011;51970;53.484;49.488;2024-03-02T08:21:25;19.27;;;9.05;;
65368;SDS011;51970;53.484;49.488;2024-03-02T08:23:51;22.55;;;11.75;;
65368;SDS011;51970;53.484;49.488;2024-03-02T08:26:17;24.27;;;10.20;;
65368;SDS011;51970;53.484;49.488;2024-03-02T08:28:43;21.45;;;11.40;;
65368;SDS011;51970;53.484;49.488;2024-03-02T08:31:10;22.65;;;11.43;;
65368;SDS011;51970;53.484;49.488;2024-03-02T08:33:36;23.92;;;10.00;;
65368;SDS011;51970;53.484;49.488;2024-03-02T08:36:02;20.20;;;11.05;;
65368;SDS011;51970;53.484;49.488;2024-03-02T08:38:29;23.35;;;11.70;;
65368;SDS011;51970;53.484;49.488;2024-03-02T08:40:55;20.10;;;9.70;;
65368;SDS011;51970;53.484;49.488;2024-03-02T08:43:22;20.50;;;9.98;;
65368;SDS011;51970;53.484;49.488;2024-03-02T08:45:48;24.50;;;10.30;;
65368;SDS011;51970;53.484;49.488;2024-03-02T08:48:16;23.08;;;10.57;;
65368;SDS011;51970;53.484;49.488;2024-03-02T08:50:42;20.48;;;11.18;;
65368;SDS011;51970;53.484;49.488;2024-03-02T08:53:09;24.77;;;11.15;;
65368;SDS011;51970;53.484;49.488;2024-03-02T08:55:35;17.60;;;9.60;;
65368;SDS011;51970;53.484;49.488;2024-03-02T08:58:01;21.50;;;11.68;;
65368;SDS011;51970;53.484;49.488;2024-03-02T09:00:27;23.00;;;11.02;;
65368;SDS011;51970;53.484;49.488;2024-03-02T09:02:53;19.85;;;10.27;;
65368;SDS011;51970;53.484;49.488;2024-03-02T09:05:19;27.02;;;9.52;;
65368;SDS011;51970;53.484;49.488;2024-03-02T09:07:46;22.13;;;9.35;;
65368;SDS011;51970;53.484;49.488;2024-03-02T09:10:12;22.85;;;9.55;;
65368;SDS011;51970;53.484;49.488;2024-03-02T09:12:38;25.42;;;10.60;;
65368;SDS011;51970;53.484;49.488;2024-03-02T09:15:05;24.80;;;9.93;;
65368;SDS011;51970;53.484;49.488;2024-03-02T09:17:34;18.88;;;9.02;;
65368;SDS011;51970;53.484;49.488;2024-03-02T09:20:00;25.23;;;11.30;;
65368;SDS011;51970;53.484;49.488;2024-03-02T09:22:26;22.30;;;10.73;;
65368;SDS011;51970;53.484;49.488;2024-03-02T09:24:52;20.35;;;9.82;;
65368;SDS011;51970;53.484;49.488;2024-03-02T09:27:18;21.42;;;9.40;;
65368;SDS011;51970;53.484;49.488;2024-03-02T09:29:44;20.92;;;10.73;;
65368;SDS011;51970;53.484;49.488;2024-03-02T09:32:12;24.17;;;11.07;;
65368;SDS011;51970;53.484;49.488;2024-03-02T09:34:39;20.50;;;9.82;;
65368;SDS011;51970;53.484;49.488;2024-03-02T09:37:06;25.38;;;10.82;;
65368;SDS011;51970;53.484;49.488;2024-03-02T09:39:32;28.55;;;13.20;;
65368;SDS011;51970;53.484;49.488;2024-03-02T09:42:01;18.88;;;10.43;;
65368;SDS011;51970;53.484;49.488;2024-03-02T09:44:29;23.23;;;9.07;;
65368;SDS011;51970;53.484;49.488;2024-03-02T09:46:55;23.92;;;10.55;;
65368;SDS011;51970;53.484;49.488;2024-03-02T09:49:21;18.17;;;9.77;;
65368;SDS011;51970;53.484;49.488;2024-03-02T09:51:48;19.45;;;9.68;;
65368;SDS011;51970;53.484;49.488;2024-03-02T09:54:15;21.67;;;9.30;;
65368;SDS011;51970;53.484;49.488;2024-03-02T09:56:42;23.85;;;11.00;;
65368;SDS011;51970;53.484;49.488;2024-03-02T09:59:08;22.02;;;9.88;;
65368;SDS011;51970;53.484;49.488;2024-03-02T10:01:34;26.38;;;11.52;;
65368;SDS011;51970;53.484;49.488;2024-03-02T10:04:00;19.20;;;11.75;;
65368;SDS011;51970;53.484;49.488;2024-03-02T10:06:28;22.05;;;9.93;;
65368;SDS011;51970;53.484;49.488;2024-03-02T10:08:54;28.55;;;10.55;;
65368;SDS011;51970;53.484;49.488;2024-03-02T10:14:11;21.30;;;10.27;;
65368;SDS011;51970;53.484;49.488;2024-03-02T10:16:42;20.77;;;9.15;;
65368;SDS011;51970;53.484;49.488;2024-03-02T10:19:16;24.00;;;9.75;;
65368;SDS011;51970;53.484;49.488;2024-03-02T10:21:44;29.75;;;11.93;;
65368;SDS011;51970;53.484;49.488;2024-03-02T10:24:11;24.08;;;11.18;;
65368;SDS011;51970;53.484;49.488;2024-03-02T10:26:38;21.17;;;10.60;;
65368;SDS011;51970;53.484;49.488;2024-03-02T10:29:04;23.02;;;10.10;;
65368;SDS011;51970;53.484;49.488;2024-03-02T10:31:31;19.17;;;9.82;;
65368;SDS011;51970;53.484;49.488;2024-03-02T10:33:57;22.60;;;10.07;;
65368;SDS011;51970;53.484;49.488;2024-03-02T10:36:25;18.35;;;9.77;;
65368;SDS011;51970;53.484;49.488;2024-03-02T10:38:51;19.70;;;8.85;;
65368;SDS011;51970;53.484;49.488;2024-03-02T10:41:23;27.15;;;8.93;;
65368;SDS011;51970;53.484;49.488;2024-03-02T10:43:53;23.55;;;11.38;;
65368;SDS011;51970;53.484;49.488;2024-03-02T10:46:30;18.23;;;9.57;;
65368;SDS011;51970;53.484;49.488;2024-03-02T10:48:58;19.75;;;9.30;;
65368;SDS011;51970;53.484;49.488;2024-03-02T10:51:30;20.17;;;10.35;;
65368;SDS011;51970;53.484;49.488;2024-03-02T10:53:58;23.75;;;10.48;;
65368;SDS011;51970;53.484;49.488;2024-03-02T10:56:49;25.10;;;9.52;;
65368;SDS011;51970;53.484;49.488;2024-03-02T10:59:33;20.40;;;8.65;;
65368;SDS011;51970;53.484;49.488;2024-03-02T11:02:00;22.02;;;8.80;;
65368;SDS011;51970;53.484;49.488;2024-03-02T11:04:29;18.83;;;8.68;;
65368;SDS011;51970;53.484;49.488;2024-03-02T11:07:00;23.33;;;9.13;;
65368;SDS011;51970;53.484;49.488;2024-03-02T11:09:29;20.80;;;10.15;;
65368;SDS011;51970;53.484;49.488;2024-03-02T11:14:58;21.83;;;8.88;;
65368;SDS011;51970;53.484;49.488;2024-03-02T11:17:26;22.55;;;10.27;;
65368;SDS011;51970;53.484;49.488;2024-03-02T11:19:52;31.35;;;10.15;;
65368;SDS011;51970;53.484;49.488;2024-03-02T11:22:19;22.50;;;9.77;;
65368;SDS011;51970;53.484;49.488;2024-03-02T11:24:49;20.60;;;9.25;;
65368;SDS011;51970;53.484;49.488;2024-03-02T11:33:06;18.27;;;9.07;;
65368;SDS011;51970;53.484;49.488;2024-03-02T11:35:33;20.33;;;8.88;;
65368;SDS011;51970;53.484;49.488;2024-03-02T11:38:03;24.92;;;10.27;;
65368;SDS011;51970;53.484;49.488;2024-03-02T11:40:30;20.40;;;8.00;;
65368;SDS011;51970;53.484;49.488;2024-03-02T11:42:56;22.30;;;9.15;;
65368;SDS011;51970;53.484;49.488;2024-03-02T11:45:25;25.70;;;10.18;;
65368;SDS011;51970;53.484;49.488;2024-03-02T11:47:55;22.77;;;10.05;;
65368;SDS011;51970;53.484;49.488;2024-03-02T11:52:57;19.65;;;8.80;;
65368;SDS011;51970;53.484;49.488;2024-03-02T11:55:25;18.40;;;9.35;;
65368;SDS011;51970;53.484;49.488;2024-03-02T11:57:52;19.63;;;9.38;;
65368;SDS011;51970;53.484;49.488;2024-03-02T12:00:18;21.98;;;9.13;;
65368;SDS011;51970;53.484;49.488;2024-03-02T12:03:27;20.25;;;8.40;;
65368;SDS011;51970;53.484;49.488;2024-03-02T12:05:37;17.77;;;8.40;;
65368;SDS011;51970;53.484;49.488;2024-03-02T12:08:04;16.70;;;8.18;;
65368;SDS011;51970;53.484;49.488;2024-03-02T12:10:32;20.05;;;9.43;;
65368;SDS011;51970;53.484;49.488;2024-03-02T12:12:59;23.42;;;9.23;;
65368;SDS011;51970;53.484;49.488;2024-03-02T12:15:27;26.58;;;9.15;;
65368;SDS011;51970;53.484;49.488;2024-03-02T12:17:57;17.83;;;8.70;;
65368;SDS011;51970;53.484;49.488;2024-03-02T12:20:25;20.10;;;9.48;;
65368;SDS011;51970;53.484;49.488;2024-03-02T12:22:54;21.27;;;8.65;;
65368;SDS011;51970;53.484;49.488;2024-03-02T12:25:23;20.75;;;9.18;;
65368;SDS011;51970;53.484;49.488;2024-03-02T12:27:51;17.75;;;9.50;;
65368;SDS011;51970;53.484;49.488;2024-03-02T12:30:21;20.02;;;9.35;;
65368;SDS011;51970;53.484;49.488;2024-03-02T12:32:47;20.17;;;8.98;;
65368;SDS011;51970;53.484;49.488;2024-03-02T12:35:14;18.05;;;8.93;;
65368;SDS011;51970;53.484;49.488;2024-03-02T12:37:44;19.13;;;8.88;;
65368;SDS011;51970;53.484;49.488;2024-03-02T12:40:11;17.88;;;8.45;;
65368;SDS011;51970;53.484;49.488;2024-03-02T12:42:38;19.98;;;8.77;;
65368;SDS011;51970;53.484;49.488;2024-03-02T12:45:05;20.27;;;8.90;;
65368;SDS011;51970;53.484;49.488;2024-03-02T12:47:33;19.70;;;7.93;;
65368;SDS011;51970;53.484;49.488;2024-03-02T12:50:03;18.05;;;8.02;;
65368;SDS011;51970;53.484;49.488;2024-03-02T12:52:31;16.98;;;9.68;;
65368;SDS011;51970;53.484;49.488;2024-03-02T12:55:00;17.83;;;9.65;;
65368;SDS011;51970;53.484;49.488;2024-03-02T12:57:29;18.00;;;9.60;;
65368;SDS011;51970;53.484;49.488;2024-03-02T13:02:41;23.88;;;11.60;;
65368;SDS011;51970;53.484;49.488;2024-03-02T13:05:08;22.65;;;11.05;;
65368;SDS011;51970;53.484;49.488;2024-03-02T13:07:37;24.90;;;12.32;;
65368;SDS011;51970;53.484;49.488;2024-03-02T13:10:04;24.65;;;12.63;;
65368;SDS011;51970;53.484;49.488;2024-03-02T13:12:31;25.20;;;13.05;;
65368;SDS011;51970;53.484;49.488;2024-03-02T13:14:58;28.33;;;12.85;;
65368;SDS011;51970;53.484;49.488;2024-03-02T13:17:24;21.10;;;11.07;;
65368;SDS011;51970;53.484;49.488;2024-03-02T13:19:59;26.60;;;13.25;;
65368;SDS011;51970;53.484;49.488;2024-03-02T13:22:25;28.73;;;14.00;;
65368;SDS011;51970;53.484;49.488;2024-03-02T13:24:52;29.33;;;14.10;;
65368;SDS011;51970;53.484;49.488;2024-03-02T13:27:21;23.30;;;13.57;;
65368;SDS011;51970;53.484;49.488;2024-03-02T13:29:47;24.98;;;13.27;;
65368;SDS011;51970;53.484;49.488;2024-03-02T13:32:14;28.20;;;12.32;;
65368;SDS011;51970;53.484;49.488;2024-03-02T13:34:41;23.17;;;14.32;;
65368;SDS011;51970;53.484;49.488;2024-03-02T13:37:07;25.92;;;13.75;;
65368;SDS011;51970;53.484;49.488;2024-03-02T13:39:34;28.00;;;12.30;;
65368;SDS011;51970;53.484;49.488;2024-03-02T13:42:08;25.00;;;13.63;;
65368;SDS011;51970;53.484;49.488;2024-03-02T13:44:40;27.65;;;12.07;;
65368;SDS011;51970;53.484;49.488;2024-03-02T13:49:38;19.83;;;9.07;;
65368;SDS011;51970;53.484;49.488;2024-03-02T13:52:09;21.83;;;9.60;;
65368;SDS011;51970;53.484;49.488;2024-03-02T13:54:37;17.55;;;9.02;;
65368;SDS011;51970;53.484;49.488;2024-03-02T13:57:04;18.42;;;10.10;;
65368;SDS011;51970;53.484;49.488;2024-03-02T13:59:31;18.83;;;9.25;;
65368;SDS011;51970;53.484;49.488;2024-03-02T14:01:57;20.30;;;8.82;;
65368;SDS011;51970;53.484;49.488;2024-03-02T14:04:24;17.70;;;10.45;;
65368;SDS011;51970;53.484;49.488;2024-03-02T14:06:50;23.15;;;9.27;;
65368;SDS011;51970;53.484;49.488;2024-03-02T14:09:18;20.38;;;9.45;;
65368;SDS011;51970;53.484;49.488;2024-03-02T14:11:46;18.77;;;9.07;;
65368;SDS011;51970;53.484;49.488;2024-03-02T14:14:12;19.15;;;9.65;;
65368;SDS011;51970;53.484;49.488;2024-03-02T14:16:38;17.70;;;9.43;;
65368;SDS011;51970;53.484;49.488;2024-03-02T14:19:04;25.23;;;9.40;;
65368;SDS011;51970;53.484;49.488;2024-03-02T14:21:31;23.48;;;11.13;;
65368;SDS011;51970;53.484;49.488;2024-03-02T14:23:57;28.05;;;9.73;;
65368;SDS011;51970;53.484;49.488;2024-03-02T14:26:23;22.63;;;9.10;;
65368;SDS011;51970;53.484;49.488;2024-03-02T14:28:49;22.65;;;9.93;;
65368;SDS011;51970;53.484;49.488;2024-03-02T14:31:16;22.92;;;8.98;;
65368;SDS011;51970;53.484;49.488;2024-03-02T14:33:43;21.63;;;8.50;;
65368;SDS011;51970;53.484;49.488;2024-03-02T14:36:09;16.83;;;8.52;;
65368;SDS011;51970;53.484;49.488;2024-03-02T14:38:35;18.02;;;9.38;;
65368;SDS011;51970;53.484;49.488;2024-03-02T14:41:01;18.50;;;9.40;;
65368;SDS011;51970;53.484;49.488;2024-03-02T14:43:28;21.40;;;8.60;;
65368;SDS011;51970;53.484;49.488;2024-03-02T14:45:54;17.90;;;10.18;;